AEE16Z LGAV-LGSA
Flight info
| Callsign | AEE16Z |
|---|---|
| Flight time | 0h 38m |
| Altitude | 21000 |
| Route | KEA L617 MIL Y144 RUSOS |
| Aircraft | A320/M-SDE3FGHIRWY/LB1 |
Departure
| Time | 2026-05-05 18:55 |
|---|---|
| Airport | Athens Eleftherios Venizelos International Airport (LGAV) |
Arrival
| Time | 2026-05-05 19:33 |
|---|---|
| Airport | Chania International Airport (LGSA) |
| Time | Latitude | Longitude | Altitude | Speed | Heading |
|---|---|---|---|---|---|
| 2026-05-05 18:38 | 37.93798 | 23.95013 | 301 ft | 0 kts | 307° |
| 2026-05-05 18:44 | 37.93787 | 23.95031 | 303 ft | 4 kts | 307° |
| 2026-05-05 18:45 | 37.93774 | 23.95054 | 300 ft | 2 kts | 307° |
| 2026-05-05 18:45 | 37.93760 | 23.95080 | 302 ft | 4 kts | 286° |
| 2026-05-05 18:45 | 37.93760 | 23.95110 | 300 ft | 4 kts | 233° |
| 2026-05-05 18:45 | 37.93765 | 23.95118 | 300 ft | 0 kts | 217° |
| 2026-05-05 18:48 | 37.93763 | 23.95116 | 300 ft | 1 kts | 217° |
| 2026-05-05 18:48 | 37.93756 | 23.95109 | 304 ft | 1 kts | 217° |
| 2026-05-05 18:48 | 37.93752 | 23.95105 | 303 ft | 1 kts | 217° |
| 2026-05-05 18:49 | 37.93750 | 23.95103 | 303 ft | 0 kts | 217° |
| 2026-05-05 18:49 | 37.93739 | 23.95100 | 300 ft | 5 kts | 189° |
| 2026-05-05 18:49 | 37.93697 | 23.95138 | 300 ft | 9 kts | 137° |
| 2026-05-05 18:49 | 37.93634 | 23.95125 | 301 ft | 11 kts | 216° |
| 2026-05-05 18:50 | 37.93568 | 23.95061 | 300 ft | 13 kts | 217° |
| 2026-05-05 18:50 | 37.93492 | 23.94988 | 301 ft | 15 kts | 217° |
| 2026-05-05 18:50 | 37.93411 | 23.94952 | 302 ft | 13 kts | 160° |
| 2026-05-05 18:50 | 37.93323 | 23.94975 | 301 ft | 15 kts | 213° |
| 2026-05-05 18:51 | 37.93235 | 23.94889 | 303 ft | 17 kts | 216° |
| 2026-05-05 18:51 | 37.93146 | 23.94804 | 301 ft | 14 kts | 217° |
| 2026-05-05 18:51 | 37.93068 | 23.94730 | 302 ft | 14 kts | 217° |
| 2026-05-05 18:51 | 37.92983 | 23.94650 | 300 ft | 16 kts | 216° |
| 2026-05-05 18:52 | 37.92888 | 23.94560 | 303 ft | 18 kts | 217° |
| 2026-05-05 18:52 | 37.92786 | 23.94463 | 304 ft | 19 kts | 217° |
| 2026-05-05 18:52 | 37.92687 | 23.94368 | 304 ft | 18 kts | 217° |
| 2026-05-05 18:52 | 37.92605 | 23.94293 | 304 ft | 11 kts | 215° |
| 2026-05-05 18:53 | 37.92547 | 23.94308 | 304 ft | 9 kts | 128° |
| 2026-05-05 18:53 | 37.92512 | 23.94369 | 309 ft | 8 kts | 129° |
| 2026-05-05 18:53 | 37.92487 | 23.94439 | 309 ft | 10 kts | 79° |
| 2026-05-05 18:53 | 37.92529 | 23.94493 | 308 ft | 5 kts | 34° |
| 2026-05-05 18:54 | 37.92534 | 23.94498 | 307 ft | 0 kts | 34° |
| 2026-05-05 18:54 | 37.92591 | 23.94551 | 306 ft | 38 kts | 37° |
| 2026-05-05 18:54 | 37.92998 | 23.94937 | 298 ft | 105 kts | 37° |
| 2026-05-05 18:54 | 37.93721 | 23.95622 | 283 ft | 153 kts | 37° |
| 2026-05-05 18:55 | 37.94616 | 23.96487 | 721 ft | 159 kts | 37° |
| 2026-05-05 18:55 | 37.95495 | 23.97362 | 1328 ft | 162 kts | 37° |
| 2026-05-05 18:55 | 37.96396 | 23.98228 | 1952 ft | 163 kts | 37° |
| 2026-05-05 18:55 | 37.97345 | 23.99129 | 2292 ft | 181 kts | 36° |
| 2026-05-05 18:56 | 37.98413 | 24.00144 | 2541 ft | 203 kts | 36° |
| 2026-05-05 18:56 | 37.99610 | 24.01286 | 2803 ft | 228 kts | 36° |
| 2026-05-05 18:56 | 38.00930 | 24.02551 | 3341 ft | 244 kts | 36° |
| 2026-05-05 18:56 | 38.02291 | 24.03860 | 4216 ft | 246 kts | 36° |
| 2026-05-05 18:57 | 38.03657 | 24.05172 | 5159 ft | 246 kts | 35° |
| 2026-05-05 18:57 | 38.05027 | 24.06489 | 6076 ft | 248 kts | 35° |
| 2026-05-05 18:57 | 38.06407 | 24.07813 | 6976 ft | 249 kts | 35° |
| 2026-05-05 18:57 | 38.07770 | 24.09175 | 7847 ft | 251 kts | 42° |
| 2026-05-05 18:58 | 38.08774 | 24.11007 | 8669 ft | 259 kts | 65° |
| 2026-05-05 18:58 | 38.09092 | 24.12491 | 9142 ft | 270 kts | 79° |
| 2026-05-05 18:58 | 38.08904 | 24.14944 | 9691 ft | 291 kts | 104° |
| 2026-05-05 18:58 | 38.08032 | 24.17315 | 10285 ft | 307 kts | 119° |
| 2026-05-05 18:59 | 38.06585 | 24.19459 | 10491 ft | 335 kts | 137° |
| 2026-05-05 18:59 | 38.04525 | 24.21047 | 10695 ft | 359 kts | 158° |
| 2026-05-05 18:59 | 38.02057 | 24.21758 | 11218 ft | 368 kts | 172° |
| 2026-05-05 18:59 | 37.99502 | 24.22188 | 11882 ft | 372 kts | 172° |
| 2026-05-05 19:00 | 37.96922 | 24.22633 | 12540 ft | 376 kts | 172° |
| 2026-05-05 19:00 | 37.94320 | 24.23093 | 13188 ft | 380 kts | 172° |
| 2026-05-05 19:00 | 37.91687 | 24.23565 | 13838 ft | 384 kts | 172° |
| 2026-05-05 19:00 | 37.89028 | 24.24043 | 14410 ft | 388 kts | 172° |
| 2026-05-05 19:01 | 37.86340 | 24.24520 | 14962 ft | 392 kts | 172° |
| 2026-05-05 19:01 | 37.83624 | 24.24999 | 15506 ft | 396 kts | 173° |
| 2026-05-05 19:01 | 37.80917 | 24.25474 | 16034 ft | 400 kts | 173° |
| 2026-05-05 19:01 | 37.78146 | 24.25957 | 16558 ft | 404 kts | 173° |
| 2026-05-05 19:02 | 37.75348 | 24.26446 | 17094 ft | 408 kts | 173° |
| 2026-05-05 19:02 | 37.72520 | 24.26941 | 17626 ft | 412 kts | 173° |
| 2026-05-05 19:02 | 37.69669 | 24.27438 | 18158 ft | 417 kts | 174° |
| 2026-05-05 19:02 | 37.66784 | 24.27941 | 18657 ft | 421 kts | 174° |
| 2026-05-05 19:03 | 37.63872 | 24.28448 | 19129 ft | 425 kts | 174° |
| 2026-05-05 19:03 | 37.60931 | 24.28960 | 19620 ft | 428 kts | 174° |
| 2026-05-05 19:03 | 37.57967 | 24.29472 | 20105 ft | 432 kts | 174° |
| 2026-05-05 19:03 | 37.54978 | 24.30009 | 20605 ft | 436 kts | 173° |
| 2026-05-05 19:04 | 37.51980 | 24.30688 | 21089 ft | 440 kts | 171° |
| 2026-05-05 19:04 | 37.48972 | 24.31496 | 21554 ft | 444 kts | 169° |
| 2026-05-05 19:04 | 37.45953 | 24.32379 | 21988 ft | 447 kts | 169° |
| 2026-05-05 19:04 | 37.42913 | 24.33288 | 22410 ft | 450 kts | 169° |
| 2026-05-05 19:05 | 37.39851 | 24.34191 | 22843 ft | 454 kts | 170° |
| 2026-05-05 19:05 | 37.36761 | 24.35073 | 23259 ft | 457 kts | 171° |
| 2026-05-05 19:05 | 37.33646 | 24.35934 | 23678 ft | 460 kts | 171° |
| 2026-05-05 19:05 | 37.30505 | 24.36780 | 23971 ft | 463 kts | 171° |
| 2026-05-05 19:06 | 37.27350 | 24.37619 | 24052 ft | 468 kts | 171° |
| 2026-05-05 19:06 | 37.24141 | 24.38473 | 24076 ft | 473 kts | 171° |
| 2026-05-05 19:06 | 37.20914 | 24.39340 | 24070 ft | 475 kts | 171° |
| 2026-05-05 19:06 | 37.17679 | 24.40221 | 24066 ft | 476 kts | 171° |
| 2026-05-05 19:07 | 37.14440 | 24.41116 | 24070 ft | 477 kts | 171° |
| 2026-05-05 19:07 | 37.11202 | 24.42014 | 24072 ft | 477 kts | 171° |
| 2026-05-05 19:07 | 37.07949 | 24.42913 | 24080 ft | 477 kts | 171° |
| 2026-05-05 19:07 | 37.04719 | 24.43801 | 24070 ft | 477 kts | 171° |
| 2026-05-05 19:08 | 37.01478 | 24.44687 | 24069 ft | 477 kts | 171° |
| 2026-05-05 19:08 | 36.98245 | 24.45569 | 24068 ft | 477 kts | 171° |
| 2026-05-05 19:08 | 36.95003 | 24.46452 | 24059 ft | 477 kts | 171° |
| 2026-05-05 19:08 | 36.91761 | 24.47333 | 24059 ft | 477 kts | 171° |
| 2026-05-05 19:09 | 36.88518 | 24.48215 | 24059 ft | 477 kts | 171° |
| 2026-05-05 19:09 | 36.85275 | 24.49098 | 24062 ft | 477 kts | 171° |
| 2026-05-05 19:09 | 36.82030 | 24.49979 | 24063 ft | 477 kts | 171° |
| 2026-05-05 19:09 | 36.78783 | 24.50842 | 24064 ft | 476 kts | 173° |
| 2026-05-05 19:10 | 36.75507 | 24.51279 | 24064 ft | 471 kts | 183° |
| 2026-05-05 19:10 | 36.72254 | 24.51090 | 24055 ft | 466 kts | 192° |
| 2026-05-05 19:10 | 36.69094 | 24.50338 | 24059 ft | 461 kts | 199° |
| 2026-05-05 19:10 | 36.65970 | 24.49431 | 24062 ft | 461 kts | 198° |
| 2026-05-05 19:11 | 36.62843 | 24.48533 | 24067 ft | 461 kts | 198° |
| 2026-05-05 19:11 | 36.59756 | 24.47655 | 24070 ft | 461 kts | 198° |
| 2026-05-05 19:11 | 36.56625 | 24.46766 | 24073 ft | 462 kts | 198° |
| 2026-05-05 19:11 | 36.53493 | 24.45877 | 24064 ft | 462 kts | 198° |
| 2026-05-05 19:12 | 36.50367 | 24.44992 | 24059 ft | 462 kts | 198° |
| 2026-05-05 19:12 | 36.47228 | 24.44102 | 24060 ft | 462 kts | 198° |
| 2026-05-05 19:12 | 36.44100 | 24.43215 | 24059 ft | 462 kts | 198° |
| 2026-05-05 19:12 | 36.40964 | 24.42324 | 24066 ft | 462 kts | 198° |
| 2026-05-05 19:13 | 36.37826 | 24.41434 | 24065 ft | 463 kts | 198° |
| 2026-05-05 19:13 | 36.34685 | 24.40545 | 24065 ft | 463 kts | 198° |
| 2026-05-05 19:13 | 36.31542 | 24.39661 | 24068 ft | 463 kts | 198° |
| 2026-05-05 19:13 | 36.28399 | 24.38775 | 24063 ft | 463 kts | 198° |
| 2026-05-05 19:14 | 36.25254 | 24.37889 | 24059 ft | 464 kts | 198° |
| 2026-05-05 19:14 | 36.22106 | 24.37003 | 24067 ft | 464 kts | 198° |
| 2026-05-05 19:14 | 36.18954 | 24.36118 | 24073 ft | 464 kts | 198° |
| 2026-05-05 19:14 | 36.15805 | 24.35230 | 24077 ft | 464 kts | 198° |
| 2026-05-05 19:15 | 36.12655 | 24.34343 | 24081 ft | 464 kts | 198° |
| 2026-05-05 19:15 | 36.09598 | 24.33483 | 24085 ft | 464 kts | 198° |
| 2026-05-05 19:15 | 36.06449 | 24.32599 | 24076 ft | 464 kts | 198° |
| 2026-05-05 19:15 | 36.03301 | 24.31713 | 24079 ft | 464 kts | 198° |
| 2026-05-05 19:16 | 36.00178 | 24.30836 | 23904 ft | 454 kts | 198° |
| 2026-05-05 19:16 | 35.97130 | 24.29984 | 23685 ft | 446 kts | 198° |
| 2026-05-05 19:16 | 35.94114 | 24.29138 | 23424 ft | 443 kts | 198° |
| 2026-05-05 19:16 | 35.91113 | 24.28296 | 23152 ft | 441 kts | 198° |
| 2026-05-05 19:17 | 35.88127 | 24.27459 | 22882 ft | 439 kts | 198° |
| 2026-05-05 19:17 | 35.85153 | 24.26628 | 22619 ft | 437 kts | 198° |
| 2026-05-05 19:17 | 35.82199 | 24.25806 | 22363 ft | 435 kts | 198° |
| 2026-05-05 19:17 | 35.79251 | 24.24986 | 22098 ft | 433 kts | 198° |
| 2026-05-05 19:18 | 35.76325 | 24.24171 | 21780 ft | 428 kts | 198° |
| 2026-05-05 19:18 | 35.73468 | 24.23375 | 21298 ft | 425 kts | 198° |
| 2026-05-05 19:18 | 35.70597 | 24.22574 | 20817 ft | 421 kts | 197° |
| 2026-05-05 19:18 | 35.67748 | 24.21779 | 20313 ft | 418 kts | 197° |
| 2026-05-05 19:19 | 35.64917 | 24.20995 | 19809 ft | 416 kts | 197° |
| 2026-05-05 19:19 | 35.62105 | 24.20218 | 19305 ft | 413 kts | 197° |
| 2026-05-05 19:19 | 35.59309 | 24.19445 | 18793 ft | 411 kts | 196° |
| 2026-05-05 19:19 | 35.56473 | 24.18968 | 18235 ft | 414 kts | 184° |
| 2026-05-05 19:20 | 35.53605 | 24.19297 | 17664 ft | 415 kts | 169° |
| 2026-05-05 19:20 | 35.50887 | 24.20438 | 17118 ft | 413 kts | 154° |
| 2026-05-05 19:20 | 35.48469 | 24.22300 | 16550 ft | 409 kts | 140° |
| 2026-05-05 19:20 | 35.46409 | 24.24684 | 16007 ft | 406 kts | 134° |
| 2026-05-05 19:21 | 35.44421 | 24.27123 | 15453 ft | 403 kts | 134° |
| 2026-05-05 19:21 | 35.42457 | 24.29523 | 14900 ft | 394 kts | 134° |
| 2026-05-05 19:21 | 35.40536 | 24.31861 | 14360 ft | 384 kts | 134° |
| 2026-05-05 19:21 | 35.38659 | 24.34136 | 13815 ft | 375 kts | 134° |
| 2026-05-05 19:22 | 35.36826 | 24.36356 | 13216 ft | 365 kts | 134° |
| 2026-05-05 19:22 | 35.35054 | 24.38506 | 12666 ft | 352 kts | 134° |
| 2026-05-05 19:22 | 35.33341 | 24.40585 | 12174 ft | 341 kts | 134° |
| 2026-05-05 19:22 | 35.31679 | 24.42599 | 11669 ft | 332 kts | 133° |
| 2026-05-05 19:23 | 35.30081 | 24.44582 | 11181 ft | 322 kts | 127° |
| 2026-05-05 19:23 | 35.28904 | 24.46800 | 10693 ft | 310 kts | 111° |
| 2026-05-05 19:23 | 35.28262 | 24.49260 | 10196 ft | 299 kts | 95° |
| 2026-05-05 19:23 | 35.28147 | 24.51733 | 9777 ft | 285 kts | 81° |
| 2026-05-05 19:24 | 35.28495 | 24.54061 | 9494 ft | 265 kts | 68° |
| 2026-05-05 19:24 | 35.29179 | 24.56037 | 9239 ft | 248 kts | 56° |
| 2026-05-05 19:24 | 35.30136 | 24.57713 | 8988 ft | 234 kts | 45° |
| 2026-05-05 19:24 | 35.31305 | 24.59067 | 8729 ft | 230 kts | 34° |
| 2026-05-05 19:25 | 35.32639 | 24.60108 | 8458 ft | 226 kts | 24° |
| 2026-05-05 19:25 | 35.34143 | 24.60597 | 8134 ft | 226 kts | 2° |
| 2026-05-05 19:25 | 35.35699 | 24.60344 | 7810 ft | 228 kts | 343° |
| 2026-05-05 19:25 | 35.37099 | 24.59420 | 7524 ft | 232 kts | 323° |
| 2026-05-05 19:26 | 35.38160 | 24.57914 | 7251 ft | 238 kts | 303° |
| 2026-05-05 19:26 | 35.38845 | 24.56054 | 6934 ft | 240 kts | 297° |
| 2026-05-05 19:26 | 35.39510 | 24.54173 | 6617 ft | 241 kts | 298° |
| 2026-05-05 19:26 | 35.40213 | 24.52306 | 6267 ft | 242 kts | 299° |
| 2026-05-05 19:27 | 35.40936 | 24.50441 | 5910 ft | 243 kts | 299° |
| 2026-05-05 19:27 | 35.41664 | 24.48571 | 5560 ft | 243 kts | 298° |
| 2026-05-05 19:27 | 35.42404 | 24.46704 | 5212 ft | 243 kts | 302° |
| 2026-05-05 19:27 | 35.43279 | 24.44940 | 4878 ft | 242 kts | 300° |
| 2026-05-05 19:28 | 35.43993 | 24.43080 | 4561 ft | 241 kts | 294° |
| 2026-05-05 19:28 | 35.44617 | 24.41183 | 4245 ft | 238 kts | 293° |
| 2026-05-05 19:28 | 35.45220 | 24.39328 | 3998 ft | 228 kts | 292° |
| 2026-05-05 19:28 | 35.45788 | 24.37590 | 3947 ft | 214 kts | 293° |
| 2026-05-05 19:29 | 35.46339 | 24.35913 | 3738 ft | 211 kts | 292° |
| 2026-05-05 19:29 | 35.46879 | 24.34264 | 3473 ft | 203 kts | 291° |
| 2026-05-05 19:29 | 35.47392 | 24.32697 | 3210 ft | 192 kts | 291° |
| 2026-05-05 19:29 | 35.47878 | 24.31212 | 2954 ft | 183 kts | 291° |
| 2026-05-05 19:30 | 35.48341 | 24.29797 | 2743 ft | 173 kts | 290° |
| 2026-05-05 19:30 | 35.48769 | 24.28489 | 2518 ft | 163 kts | 290° |
| 2026-05-05 19:30 | 35.49183 | 24.27222 | 2304 ft | 157 kts | 290° |
| 2026-05-05 19:30 | 35.49581 | 24.26003 | 2100 ft | 148 kts | 290° |
| 2026-05-05 19:31 | 35.49944 | 24.24893 | 1904 ft | 135 kts | 290° |
| 2026-05-05 19:31 | 35.50291 | 24.23828 | 1725 ft | 133 kts | 290° |
| 2026-05-05 19:31 | 35.50634 | 24.22779 | 1543 ft | 132 kts | 290° |
| 2026-05-05 19:31 | 35.50973 | 24.21736 | 1370 ft | 132 kts | 290° |
| 2026-05-05 19:32 | 35.51316 | 24.20685 | 1199 ft | 134 kts | 290° |
| 2026-05-05 19:32 | 35.51662 | 24.19625 | 1018 ft | 133 kts | 291° |
| 2026-05-05 19:32 | 35.52001 | 24.18579 | 838 ft | 131 kts | 292° |
| 2026-05-05 19:32 | 35.52338 | 24.17530 | 648 ft | 132 kts | 292° |
| 2026-05-05 19:33 | 35.52680 | 24.16487 | 525 ft | 132 kts | 293° |
| 2026-05-05 19:33 | 35.52978 | 24.15570 | 485 ft | 81 kts | 291° |
| 2026-05-05 19:33 | 35.53102 | 24.15197 | 490 ft | 22 kts | 293° |
| 2026-05-05 19:33 | 35.53164 | 24.15123 | 487 ft | 12 kts | 4° |
| 2026-05-05 19:34 | 35.53235 | 24.15153 | 487 ft | 9 kts | 24° |
| 2026-05-05 19:34 | 35.53293 | 24.15163 | 489 ft | 9 kts | 323° |
| 2026-05-05 19:34 | 35.53328 | 24.15066 | 491 ft | 18 kts | 291° |
| 2026-05-05 19:35 | 35.53440 | 24.14721 | 495 ft | 24 kts | 292° |
| 2026-05-05 19:35 | 35.53505 | 24.14525 | 497 ft | 26 kts | 292° |
| 2026-05-05 19:35 | 35.53571 | 24.14316 | 490 ft | 27 kts | 291° |
| 2026-05-05 19:35 | 35.53630 | 24.14132 | 493 ft | 17 kts | 291° |
| 2026-05-05 19:36 | 35.53666 | 24.14020 | 489 ft | 12 kts | 291° |
| 2026-05-05 19:36 | 35.53739 | 24.13988 | 498 ft | 14 kts | 21° |
| 2026-05-05 19:36 | 35.53817 | 24.14041 | 489 ft | 9 kts | 24° |
| 2026-05-05 19:36 | 35.53856 | 24.14059 | 498 ft | 2 kts | 21° |
| 2026-05-05 19:37 | 35.53858 | 24.14061 | 498 ft | 0 kts | 21° |